Time;durP1;ratioP1;P1;durP2;ratioP2;P2;SDS_P1;SDS_P2;PMS_P1;PMS_P2;Temp;Humidity;BMP_temperature;BMP_pressure;BME280_temperature;BME280_humidity;BME280_pressure;Samples;Min_cycle;Max_cycle;Signal;HPM_P1;HPM_P2
2021/07/01 00:00:36;;;;;;;19.10;13.60;;;14.20;88.50;;;;;;5000829;28;20116;-75
2021/07/01 00:03:04;;;;;;;20.52;13.82;;;14.20;88.60;;;;;;4992264;28;20343;-82
2021/07/01 00:05:29;;;;;;;20.85;14.07;;;14.20;88.60;;;;;;4995526;28;20046;-80
2021/07/01 00:07:55;;;;;;;21.13;13.48;;;14.30;88.60;;;;;;5003858;28;20034;-76
2021/07/01 00:10:25;;;;;;;22.63;13.38;;;14.30;88.70;;;;;;4992993;28;20066;-74
2021/07/01 00:12:51;;;;;;;22.90;13.98;;;14.30;88.70;;;;;;4992111;28;20037;-77
2021/07/01 00:15:20;;;;;;;19.73;14.35;;;14.30;88.70;;;;;;4990692;28;20121;-75
2021/07/01 00:17:46;;;;;;;19.73;13.55;;;14.30;88.70;;;;;;4991056;28;20081;-75
2021/07/01 00:20:13;;;;;;;20.58;13.73;;;14.30;88.70;;;;;;4993688;28;20082;-75
2021/07/01 00:22:39;;;;;;;20.35;13.65;;;14.30;88.80;;;;;;4996491;28;20053;-78
2021/07/01 00:25:07;;;;;;;18.88;13.10;;;14.20;88.70;;;;;;4998933;28;20153;-76
2021/07/01 00:27:33;;;;;;;17.20;12.77;;;14.20;88.70;;;;;;5004786;28;20054;-77
2021/07/01 00:29:59;;;;;;;19.92;13.88;;;14.30;88.90;;;;;;4997004;28;20417;-77
2021/07/01 00:32:24;;;;;;;22.85;14.52;;;14.30;88.80;;;;;;4992224;28;20034;-76
2021/07/01 00:34:50;;;;;;;17.88;12.13;;;14.20;88.70;;;;;;4997696;28;20373;-77
2021/07/01 00:37:16;;;;;;;24.38;13.07;;;14.20;88.80;;;;;;4995954;28;20156;-76
2021/07/01 00:39:42;;;;;;;16.50;12.70;;;14.20;88.90;;;;;;4995342;28;20529;-79
2021/07/01 00:42:08;;;;;;;20.00;13.35;;;14.20;88.70;;;;;;5018176;28;20068;-83
2021/07/01 00:44:34;;;;;;;22.52;13.35;;;14.20;88.60;;;;;;5016992;28;20413;-76
2021/07/01 00:46:59;;;;;;;21.13;13.02;;;14.20;88.60;;;;;;5003776;28;20129;-77
2021/07/01 00:49:25;;;;;;;18.73;12.85;;;14.20;88.60;;;;;;5000455;28;20026;-75
2021/07/01 00:51:54;;;;;;;21.33;13.35;;;14.20;88.50;;;;;;4997941;28;20066;-77
2021/07/01 00:54:20;;;;;;;16.52;12.15;;;14.20;88.50;;;;;;4997352;28;20081;-75
2021/07/01 00:56:46;;;;;;;20.67;12.80;;;14.20;88.50;;;;;;4994895;28;20034;-75
2021/07/01 00:59:12;;;;;;;20.65;13.23;;;14.20;88.40;;;;;;5003355;28;20038;-75
2021/07/01 01:01:38;;;;;;;18.67;12.15;;;14.20;88.40;;;;;;5001821;28;20026;-77
2021/07/01 01:04:04;;;;;;;19.65;12.40;;;14.20;88.50;;;;;;5003200;28;20389;-76
2021/07/01 01:06:30;;;;;;;18.52;11.55;;;14.20;88.30;;;;;;5014796;28;20480;-78
2021/07/01 01:08:57;;;;;;;15.77;11.40;;;14.20;88.30;;;;;;5019243;28;20030;-78
2021/07/01 01:11:24;;;;;;;16.60;11.73;;;14.20;88.30;;;;;;5013003;28;20572;-76
2021/07/01 01:13:51;;;;;;;16.30;11.70;;;14.20;88.30;;;;;;5020667;28;20030;-76
2021/07/01 01:16:18;;;;;;;18.85;12.13;;;14.20;88.30;;;;;;5014217;28;20037;-80
2021/07/01 01:18:44;;;;;;;16.13;11.02;;;14.20;88.30;;;;;;5013107;28;20480;-76
2021/07/01 01:21:15;;;;;;;16.23;11.48;;;14.20;88.40;;;;;;5009365;28;20038;-76
2021/07/01 01:23:41;;;;;;;22.63;11.25;;;14.20;88.40;;;;;;5036318;28;20030;-84
2021/07/01 01:26:06;;;;;;;20.25;12.32;;;14.20;88.40;;;;;;5003393;28;20470;-76
2021/07/01 01:28:32;;;;;;;18.00;12.40;;;14.10;88.40;;;;;;5010187;28;20392;-76
2021/07/01 01:30:58;;;;;;;18.30;11.73;;;14.20;88.50;;;;;;5021946;28;20519;-76
2021/07/01 01:33:25;;;;;;;18.65;12.18;;;14.20;88.40;;;;;;5025856;28;20065;-76
2021/07/01 01:35:50;;;;;;;21.33;12.38;;;14.20;88.40;;;;;;5021314;28;20045;-76
2021/07/01 01:38:17;;;;;;;19.85;12.20;;;14.20;88.30;;;;;;5025922;28;20365;-82
2021/07/01 01:40:44;;;;;;;16.00;12.20;;;14.20;88.30;;;;;;5016562;28;20038;-75
2021/07/01 01:43:13;;;;;;;20.92;13.93;;;14.20;88.20;;;;;;5029421;28;20105;-83
2021/07/01 01:45:39;;;;;;;22.27;13.65;;;14.30;88.30;;;;;;5023631;28;20052;-77
2021/07/01 01:48:05;;;;;;;17.92;14.07;;;14.30;88.40;;;;;;5024989;28;20065;-77
2021/07/01 01:50:31;;;;;;;21.23;14.60;;;14.20;88.30;;;;;;5018024;28;20466;-81
2021/07/01 01:52:57;;;;;;;21.23;15.43;;;14.30;88.40;;;;;;5011218;28;20088;-75
2021/07/01 01:55:23;;;;;;;20.10;16.13;;;14.30;88.40;;;;;;5014951;28;20037;-76
2021/07/01 01:57:50;;;;;;;21.92;15.82;;;14.30;88.40;;;;;;5028085;28;20029;-76
2021/07/01 02:00:20;;;;;;;20.48;15.43;;;14.20;88.40;;;;;;5007898;28;20037;-77
2021/07/01 02:02:47;;;;;;;19.65;16.08;;;14.30;88.40;;;;;;5019276;28;20050;-75
2021/07/01 02:05:14;;;;;;;22.08;15.77;;;14.30;88.50;;;;;;5019718;28;20084;-77
2021/07/01 02:07:40;;;;;;;21.85;16.02;;;14.30;88.40;;;;;;5021880;28;20038;-76
2021/07/01 02:10:09;;;;;;;20.85;15.77;;;14.30;88.50;;;;;;5021632;28;20028;-77
2021/07/01 02:12:34;;;;;;;19.63;14.73;;;14.20;88.20;;;;;;5007598;28;20033;-83
2021/07/01 02:15:02;;;;;;;20.88;14.50;;;14.20;88.40;;;;;;5016071;28;20046;-74
2021/07/01 02:17:28;;;;;;;19.13;14.55;;;14.10;88.60;;;;;;5009115;28;20029;-75
2021/07/01 02:19:53;;;;;;;20.25;15.43;;;14.20;88.50;;;;;;5012988;28;20451;-81
2021/07/01 02:22:19;;;;;;;21.00;15.00;;;14.10;88.60;;;;;;5017140;28;20415;-75
2021/07/01 02:24:45;;;;;;;16.77;12.85;;;14.10;88.70;;;;;;5019699;28;20629;-76
2021/07/01 02:27:11;;;;;;;18.80;13.07;;;14.10;88.70;;;;;;5016859;28;20053;-76
2021/07/01 02:29:37;;;;;;;21.50;14.68;;;14.20;88.70;;;;;;5016964;28;20436;-77
2021/07/01 02:32:04;;;;;;;20.15;14.30;;;14.10;88.60;;;;;;5001915;28;20058;-77
2021/07/01 02:34:31;;;;;;;22.75;13.90;;;14.10;88.80;;;;;;5018197;28;20038;-77
2021/07/01 02:36:56;;;;;;;20.33;13.10;;;14.10;88.90;;;;;;5010366;28;20033;-77
2021/07/01 02:39:22;;;;;;;17.92;13.85;;;14.00;88.90;;;;;;5007898;28;20359;-78
2021/07/01 02:41:49;;;;;;;17.95;14.05;;;14.00;89.00;;;;;;5020640;28;20373;-76
2021/07/01 02:44:15;;;;;;;22.02;13.27;;;13.90;89.10;;;;;;5012869;28;20050;-76
2021/07/01 02:46:40;;;;;;;18.73;12.73;;;13.90;89.20;;;;;;5004962;28;20045;-77
2021/07/01 02:49:06;;;;;;;20.88;13.63;;;13.90;89.20;;;;;;5026813;28;20037;-79
2021/07/01 02:51:31;;;;;;;17.10;12.68;;;14.00;89.20;;;;;;5019531;28;20410;-76
2021/07/01 02:53:57;;;;;;;17.15;12.38;;;14.00;89.20;;;;;;5011908;28;20398;-76
2021/07/01 02:56:23;;;;;;;19.38;12.23;;;14.00;89.20;;;;;;5017118;28;20057;-75
2021/07/01 02:58:49;;;;;;;18.13;12.63;;;14.00;89.20;;;;;;5013478;28;20069;-75
2021/07/01 03:01:15;;;;;;;18.95;12.35;;;14.10;89.20;;;;;;5019010;28;20061;-81
2021/07/01 03:03:41;;;;;;;25.58;13.80;;;14.10;89.00;;;;;;5015735;28;20041;-75
2021/07/01 03:06:08;;;;;;;20.00;12.93;;;14.10;89.10;;;;;;5022194;28;20392;-76
2021/07/01 03:08:34;;;;;;;18.35;11.98;;;14.10;89.00;;;;;;5013671;28;20513;-72
2021/07/01 03:11:00;;;;;;;16.77;12.40;;;14.10;88.90;;;;;;5019121;28;20030;-73
2021/07/01 03:13:26;;;;;;;18.38;11.48;;;14.00;88.90;;;;;;5014947;28;20041;-72
2021/07/01 03:15:51;;;;;;;19.48;11.85;;;14.00;88.90;;;;;;5014796;28;20038;-73
2021/07/01 03:18:18;;;;;;;19.92;11.80;;;14.10;88.80;;;;;;5018658;28;20064;-74
2021/07/01 03:20:44;;;;;;;17.80;11.68;;;14.10;88.60;;;;;;5010693;28;20057;-73
2021/07/01 03:23:09;;;;;;;16.95;10.90;;;14.00;88.50;;;;;;5019788;28;20483;-73
2021/07/01 03:25:35;;;;;;;18.10;11.80;;;14.00;88.70;;;;;;5009664;28;20038;-74
2021/07/01 03:28:01;;;;;;;19.10;11.80;;;14.00;88.60;;;;;;4998555;28;20039;-72
2021/07/01 03:30:26;;;;;;;15.55;10.30;;;14.00;88.60;;;;;;5003064;28;20485;-74
2021/07/01 03:32:52;;;;;;;15.88;10.93;;;14.00;88.50;;;;;;5002069;28;20397;-73
2021/07/01 03:35:18;;;;;;;18.15;11.68;;;14.10;88.50;;;;;;5001647;28;20120;-73
2021/07/01 03:37:43;;;;;;;16.00;11.10;;;14.10;88.50;;;;;;4996269;28;20044;-73
2021/07/01 03:40:10;;;;;;;15.68;11.57;;;14.10;88.60;;;;;;4992991;28;20031;-73
2021/07/01 03:42:36;;;;;;;16.80;10.80;;;14.10;88.60;;;;;;5000403;28;20034;-72
2021/07/01 03:45:04;;;;;;;21.63;11.43;;;14.10;88.60;;;;;;4988314;28;20386;-75
2021/07/01 03:47:29;;;;;;;15.80;11.48;;;14.10;88.40;;;;;;4994768;28;20056;-73
2021/07/01 03:49:55;;;;;;;19.65;11.13;;;14.10;88.30;;;;;;4992711;28;20080;-74
2021/07/01 03:52:20;;;;;;;17.00;10.93;;;14.10;88.20;;;;;;4989386;28;20105;-72
2021/07/01 03:54:46;;;;;;;16.40;10.68;;;14.00;88.00;;;;;;4991014;28;20034;-73
2021/07/01 03:57:12;;;;;;;19.27;10.30;;;14.00;87.80;;;;;;4994636;28;20413;-73
2021/07/01 03:59:37;;;;;;;15.77;10.38;;;14.10;87.70;;;;;;5005728;28;20362;-73
2021/07/01 04:02:04;;;;;;;18.27;10.90;;;14.10;87.90;;;;;;4995434;28;20039;-74
2021/07/01 04:04:29;;;;;;;16.83;9.80;;;14.00;87.60;;;;;;5008830;28;20041;-73
2021/07/01 04:06:55;;;;;;;16.27;10.32;;;14.00;87.30;;;;;;4994462;28;20034;-73
2021/07/01 04:09:21;;;;;;;18.77;10.07;;;14.00;87.30;;;;;;4991066;28;20404;-73
2021/07/01 04:11:47;;;;;;;16.20;9.93;;;14.00;87.20;;;;;;5004313;28;20473;-73
2021/07/01 04:14:16;;;;;;;15.93;10.18;;;14.00;87.10;;;;;;5007380;28;20092;-73
2021/07/01 04:16:42;;;;;;;18.95;10.60;;;14.00;87.00;;;;;;5003351;28;20041;-73
2021/07/01 04:19:07;;;;;;;15.45;9.93;;;14.00;86.90;;;;;;5030135;28;20041;-73
2021/07/01 04:21:33;;;;;;;17.60;9.60;;;14.00;86.80;;;;;;5015396;28;20044;-72
2021/07/01 04:23:59;;;;;;;17.13;9.07;;;14.00;86.80;;;;;;5026796;28;20038;-73
2021/07/01 04:26:26;;;;;;;18.20;10.07;;;14.10;86.80;;;;;;5013214;28;20038;-72
2021/07/01 04:28:52;;;;;;;14.00;9.18;;;14.10;86.80;;;;;;5028364;28;20034;-72
2021/07/01 04:31:19;;;;;;;16.90;8.70;;;14.10;86.70;;;;;;5022360;28;20030;-73
2021/07/01 04:33:45;;;;;;;15.02;8.43;;;14.10;86.50;;;;;;5028849;28;20033;-72
2021/07/01 04:36:11;;;;;;;15.25;8.32;;;14.00;86.40;;;;;;5027168;28;20125;-73
2021/07/01 04:38:36;;;;;;;14.48;8.38;;;14.00;86.30;;;;;;5024381;28;20111;-72
2021/07/01 04:41:02;;;;;;;14.95;8.48;;;14.00;86.30;;;;;;5028944;28;20042;-74
2021/07/01 04:43:28;;;;;;;18.67;8.55;;;14.10;86.10;;;;;;5011519;28;20116;-72
2021/07/01 04:45:54;;;;;;;13.88;8.57;;;14.10;86.20;;;;;;5019294;28;20124;-73
2021/07/01 04:48:19;;;;;;;15.25;8.55;;;14.10;86.10;;;;;;5028524;28;20029;-74
2021/07/01 04:50:45;;;;;;;16.63;8.45;;;14.00;86.00;;;;;;5023383;28;20403;-72
2021/07/01 04:53:11;;;;;;;12.98;8.20;;;14.00;86.00;;;;;;5030759;28;20037;-73
2021/07/01 04:55:36;;;;;;;14.88;7.85;;;14.10;85.80;;;;;;5025682;28;20041;-72
2021/07/01 04:58:02;;;;;;;14.77;8.15;;;14.10;85.60;;;;;;5032635;28;20030;-72
2021/07/01 05:00:28;;;;;;;14.52;8.45;;;14.10;85.70;;;;;;5015461;28;20389;-72
2021/07/01 05:02:53;;;;;;;17.17;8.50;;;14.10;85.70;;;;;;5023817;28;20041;-72
2021/07/01 05:05:19;;;;;;;16.92;10.27;;;14.10;85.70;;;;;;5036684;28;20038;-73
2021/07/01 05:07:46;;;;;;;16.95;9.15;;;14.10;85.40;;;;;;5032030;28;20421;-72
2021/07/01 05:10:14;;;;;;;14.70;8.77;;;14.10;85.30;;;;;;5016816;28;20038;-72
2021/07/01 05:12:40;;;;;;;15.20;8.20;;;14.20;84.80;;;;;;5029157;28;20033;-74
2021/07/01 05:15:06;;;;;;;13.70;7.55;;;14.30;84.70;;;;;;5021473;28;20046;-72
2021/07/01 05:17:33;;;;;;;15.00;8.35;;;14.40;84.20;;;;;;5013493;28;20038;-72
2021/07/01 05:19:59;;;;;;;15.15;9.15;;;14.40;84.00;;;;;;5031781;28;20427;-72
2021/07/01 05:22:25;;;;;;;12.90;7.82;;;14.50;83.90;;;;;;5025509;28;20034;-75
2021/07/01 05:24:51;;;;;;;17.15;8.32;;;14.60;83.00;;;;;;5033245;28;20061;-73
2021/07/01 05:27:16;;;;;;;16.27;8.57;;;14.50;82.60;;;;;;5017061;28;20046;-73
2021/07/01 05:29:42;;;;;;;14.07;8.13;;;14.60;82.40;;;;;;5019013;28;20497;-73
2021/07/01 05:32:08;;;;;;;17.08;9.45;;;14.60;82.40;;;;;;5029958;28;20037;-72
2021/07/01 05:34:33;;;;;;;14.15;8.80;;;14.70;82.10;;;;;;5028606;28;20397;-72
2021/07/01 05:36:59;;;;;;;17.77;9.05;;;14.70;82.10;;;;;;5018214;28;20431;-73
2021/07/01 05:39:25;;;;;;;15.05;8.23;;;14.70;81.40;;;;;;5020475;28;20030;-72
2021/07/01 05:41:51;;;;;;;15.90;8.98;;;14.80;81.40;;;;;;5012835;28;20044;-73
2021/07/01 05:44:16;;;;;;;16.65;8.80;;;14.80;81.80;;;;;;5029317;28;20037;-74
2021/07/01 05:46:42;;;;;;;15.98;8.98;;;14.80;81.40;;;;;;5029279;28;20041;-73
2021/07/01 05:49:08;;;;;;;14.70;9.00;;;14.80;81.50;;;;;;5026531;28;20110;-74
2021/07/01 05:51:35;;;;;;;14.45;8.25;;;14.90;81.70;;;;;;5022007;28;20049;-72
2021/07/01 05:56:36;;;;;;;14.60;7.78;;;14.80;81.60;;;;;;5025328;28;20052;-73
2021/07/01 05:59:09;;;;;;;13.45;7.68;;;14.80;81.70;;;;;;5024342;28;20026;-73
2021/07/01 06:01:36;;;;;;;15.98;8.55;;;14.80;81.90;;;;;;5003755;28;20049;-73
2021/07/01 06:04:06;;;;;;;15.07;8.13;;;14.80;82.20;;;;;;5028038;28;20117;-73
2021/07/01 06:06:34;;;;;;;12.60;7.65;;;14.80;82.10;;;;;;5031358;28;20045;-73
2021/07/01 06:09:02;;;;;;;17.52;8.23;;;14.80;82.10;;;;;;5019219;28;20046;-72
2021/07/01 06:11:28;;;;;;;14.95;8.05;;;14.80;81.70;;;;;;5026265;28;20432;-73
2021/07/01 06:13:54;;;;;;;16.48;8.35;;;14.80;81.60;;;;;;5025515;28;20026;-73
2021/07/01 06:16:24;;;;;;;15.52;7.70;;;14.80;81.60;;;;;;5030699;28;20120;-72
2021/07/01 06:18:53;;;;;;;17.17;9.32;;;14.80;81.80;;;;;;5015943;28;20069;-76
2021/07/01 06:21:20;;;;;;;16.60;8.75;;;14.80;81.10;;;;;;5026356;28;20038;-71
2021/07/01 06:23:47;;;;;;;13.85;8.65;;;14.80;81.00;;;;;;5019604;28;20052;-72
2021/07/01 06:26:14;;;;;;;14.90;9.20;;;14.80;80.90;;;;;;5016740;28;20049;-72
2021/07/01 06:28:42;;;;;;;19.65;9.45;;;14.90;81.00;;;;;;5038839;28;20021;-72
2021/07/01 06:31:09;;;;;;;17.05;8.88;;;14.90;81.00;;;;;;5013857;28;20112;-73
2021/07/01 06:33:37;;;;;;;14.35;8.48;;;14.90;80.30;;;;;;5017454;28;20038;-74
2021/07/01 06:36:03;;;;;;;14.75;8.73;;;14.90;79.40;;;;;;5042785;28;20037;-73
2021/07/01 06:38:31;;;;;;;17.45;8.88;;;15.00;79.50;;;;;;5029176;28;20104;-72
2021/07/01 06:41:00;;;;;;;16.85;9.10;;;15.00;78.70;;;;;;5019646;28;20100;-73
2021/07/01 06:43:26;;;;;;;18.20;8.48;;;15.00;78.60;;;;;;5029861;28;20025;-73
2021/07/01 06:45:56;;;;;;;18.23;8.63;;;15.00;78.00;;;;;;5029960;28;20111;-73
2021/07/01 06:48:23;;;;;;;17.70;9.20;;;15.10;78.20;;;;;;5028341;28;20040;-73
2021/07/01 06:50:52;;;;;;;17.67;9.50;;;15.10;78.30;;;;;;5025252;28;20440;-73
2021/07/01 06:53:20;;;;;;;17.90;9.50;;;15.30;78.20;;;;;;5026739;28;20025;-73
2021/07/01 06:55:49;;;;;;;16.25;9.45;;;15.30;77.80;;;;;;5023950;28;20073;-72
2021/07/01 06:58:15;;;;;;;17.50;9.02;;;15.40;77.90;;;;;;5024392;28;20079;-73
2021/07/01 07:00:41;;;;;;;16.38;9.00;;;15.30;77.60;;;;;;5028931;28;20030;-72
2021/07/01 07:03:07;;;;;;;19.38;9.57;;;15.40;77.60;;;;;;5028655;28;20030;-74
2021/07/01 07:05:33;;;;;;;16.13;9.27;;;15.40;77.90;;;;;;5030105;28;20042;-73
2021/07/01 07:07:59;;;;;;;15.70;8.88;;;15.40;76.90;;;;;;5017135;28;20393;-73
2021/07/01 07:10:24;;;;;;;16.20;8.88;;;15.40;77.50;;;;;;5022395;28;20095;-75
2021/07/01 07:12:54;;;;;;;18.23;10.02;;;15.40;76.70;;;;;;5024930;28;20025;-72
2021/07/01 07:15:29;;;;;;;18.15;9.90;;;15.30;76.00;;;;;;5012136;28;20096;-72
2021/07/01 07:18:04;;;;;;;18.60;9.65;;;15.30;76.60;;;;;;5014841;28;20389;-72
2021/07/01 07:20:29;;;;;;;;;;;15.30;76.10;;;;;;5020105;28;20406;-73
2021/07/01 07:22:58;;;;;;;18.25;9.35;;;15.20;76.90;;;;;;5009125;28;19909;-73
2021/07/01 07:25:26;;;;;;;17.25;9.50;;;15.20;77.40;;;;;;4998689;28;20054;-73
2021/07/01 07:28:03;;;;;;;19.25;9.48;;;15.30;77.90;;;;;;5003885;28;20029;-73
2021/07/01 07:30:29;;;;;;;15.93;8.25;;;15.30;77.00;;;;;;4999812;28;20465;-73
2021/07/01 07:32:55;;;;;;;18.33;8.63;;;15.20;75.90;;;;;;5011608;28;20057;-74
2021/07/01 07:35:23;;;;;;;16.75;8.18;;;15.20;76.50;;;;;;5021778;28;20037;-72
2021/07/01 07:37:49;;;;;;;15.60;9.25;;;15.20;76.20;;;;;;5010553;28;20030;-72
2021/07/01 07:40:15;;;;;;;12.82;7.90;;;15.40;76.20;;;;;;5013183;28;20042;-74
2021/07/01 07:42:45;;;;;;;19.02;8.15;;;15.40;76.40;;;;;;4994508;28;20030;-72
2021/07/01 07:45:11;;;;;;;17.35;8.68;;;15.40;75.80;;;;;;5044237;28;20037;-72
2021/07/01 07:47:37;;;;;;;16.70;8.57;;;15.40;75.10;;;;;;5029817;28;20053;-72
2021/07/01 07:50:04;;;;;;;20.00;8.93;;;15.30;74.20;;;;;;5023236;28;20436;-74
2021/07/01 07:52:31;;;;;;;18.65;8.55;;;15.30;75.10;;;;;;5014068;28;20650;-73
2021/07/01 07:55:01;;;;;;;17.40;8.75;;;15.30;74.90;;;;;;5020539;28;20092;-73
2021/07/01 07:57:28;;;;;;;18.55;8.65;;;15.30;74.60;;;;;;5004780;28;20030;-74
2021/07/01 08:00:00;;;;;;;17.48;9.63;;;15.20;74.20;;;;;;5009428;28;20026;-74
2021/07/01 08:02:47;;;;;;;18.13;8.60;;;15.10;74.10;;;;;;5007333;28;20041;-73
2021/07/01 08:05:15;;;;;;;15.68;8.45;;;15.10;72.60;;;;;;5002851;28;20038;-73
2021/07/01 08:07:41;;;;;;;17.17;9.32;;;15.30;73.30;;;;;;5008214;28;20057;-73
2021/07/01 08:10:13;;;;;;;17.25;9.10;;;15.40;72.90;;;;;;5009265;28;20030;-73
2021/07/01 08:12:44;;;;;;;16.83;9.25;;;15.40;73.10;;;;;;5007657;28;20377;-73
2021/07/01 08:15:12;;;;;;;18.65;8.82;;;15.50;73.30;;;;;;5005720;28;20027;-73
2021/07/01 08:17:42;;;;;;;16.83;8.70;;;15.50;72.60;;;;;;4995862;28;20034;-72
2021/07/01 08:20:14;;;;;;;20.40;8.20;;;15.50;73.20;;;;;;5007201;28;20045;-74
2021/07/01 08:22:44;;;;;;;18.83;8.80;;;15.60;72.50;;;;;;5005397;28;20125;-75
2021/07/01 08:25:12;;;;;;;22.05;8.50;;;15.50;72.90;;;;;;5000264;28;20034;-73
2021/07/01 08:27:40;;;;;;;15.77;8.85;;;15.60;71.80;;;;;;5007660;28;20026;-72
2021/07/01 08:30:07;;;;;;;17.30;8.38;;;15.60;71.50;;;;;;5013060;28;20033;-73
2021/07/01 08:32:33;;;;;;;17.05;8.93;;;15.60;71.10;;;;;;5013395;28;20409;-73
2021/07/01 08:35:00;;;;;;;17.17;8.23;;;15.60;72.00;;;;;;5005254;28;20038;-72
2021/07/01 08:37:27;;;;;;;19.13;7.88;;;15.60;71.10;;;;;;5004185;28;20572;-72
2021/07/01 08:39:54;;;;;;;18.63;8.77;;;15.70;71.30;;;;;;5032267;28;20040;-72
2021/07/01 08:42:25;;;;;;;17.45;8.88;;;15.70;70.60;;;;;;5032975;28;20029;-73
2021/07/01 08:44:57;;;;;;;15.20;7.78;;;15.70;70.60;;;;;;5030610;28;20120;-72
2021/07/01 08:47:30;;;;;;;16.50;8.90;;;15.80;70.70;;;;;;5006808;28;20049;-72
2021/07/01 08:49:59;;;;;;;17.60;8.63;;;15.80;70.90;;;;;;5014928;28;20022;-73
2021/07/01 08:52:28;;;;;;;15.48;8.10;;;15.90;70.30;;;;;;5031805;28;20143;-74
2021/07/01 08:55:03;;;;;;;16.67;7.65;;;16.10;70.30;;;;;;5032225;28;20029;-74
2021/07/01 08:57:31;;;;;;;14.75;7.85;;;16.40;69.30;;;;;;5027436;28;20455;-72
2021/07/01 09:00:11;;;;;;;13.85;7.18;;;16.50;67.80;;;;;;5018122;28;20076;-73
2021/07/01 09:02:49;;;;;;;17.58;7.45;;;16.50;67.50;;;;;;5017403;28;20075;-73
2021/07/01 09:05:18;;;;;;;13.05;6.80;;;16.50;66.90;;;;;;5031919;28;20033;-73
2021/07/01 09:07:52;;;;;;;18.60;7.20;;;16.60;67.20;;;;;;5012010;28;20049;-73
2021/07/01 09:10:20;;;;;;;17.25;7.82;;;16.50;67.20;;;;;;5022011;28;20517;-73
2021/07/01 09:12:57;;;;;;;17.73;8.23;;;16.50;67.70;;;;;;5025358;28;20381;-76
2021/07/01 09:15:24;;;;;;;16.73;8.63;;;16.60;66.90;;;;;;5025008;28;20045;-73
2021/07/01 09:17:52;;;;;;;12.80;7.60;;;16.70;66.90;;;;;;5016856;28;20029;-73
2021/07/01 09:20:32;;;;;;;16.08;8.35;;;16.80;65.60;;;;;;5012614;28;20096;-73
2021/07/01 09:22:58;;;;;;;16.40;8.80;;;16.80;64.20;;;;;;5014678;28;20034;-73
2021/07/01 09:25:24;;;;;;;15.95;7.82;;;17.00;63.60;;;;;;5049644;28;20044;-73
2021/07/01 09:27:52;;;;;;;14.85;8.45;;;16.90;64.40;;;;;;5034532;28;20029;-72
2021/07/01 09:30:24;;;;;;;13.07;7.80;;;16.80;62.90;;;;;;5019353;28;20040;-73
2021/07/01 09:33:12;;;;;;;14.32;8.20;;;16.70;64.10;;;;;;5036723;28;20029;-73
2021/07/01 09:35:38;;;;;;;12.73;7.50;;;16.80;64.20;;;;;;5044225;28;20030;-74
2021/07/01 09:38:10;;;;;;;15.68;7.97;;;16.70;64.20;;;;;;5051239;28;20040;-73
2021/07/01 09:40:37;;;;;;;14.02;8.05;;;16.80;64.50;;;;;;5035749;28;20034;-73
2021/07/01 09:43:05;;;;;;;15.63;7.63;;;16.70;64.20;;;;;;5028353;28;20045;-73
2021/07/01 09:45:32;;;;;;;18.23;9.18;;;16.70;64.70;;;;;;5022381;28;20095;-73
2021/07/01 09:48:08;;;;;;;12.90;7.88;;;16.80;64.80;;;;;;5028981;28;20037;-75
2021/07/01 09:50:45;;;;;;;18.88;9.52;;;16.90;65.20;;;;;;5028867;28;20036;-73
2021/07/01 09:53:28;;;;;;;15.95;8.45;;;17.10;64.40;;;;;;5033112;28;20106;-74
2021/07/01 09:55:54;;;;;;;16.33;9.13;;;17.10;64.00;;;;;;5025586;28;20058;-73
2021/07/01 09:58:21;;;;;;;17.42;9.27;;;17.20;62.40;;;;;;5025222;28;20392;-73
2021/07/01 10:00:52;;;;;;;15.07;8.30;;;17.40;62.10;;;;;;5017688;28;20079;-73
2021/07/01 10:03:19;;;;;;;12.18;8.57;;;17.90;61.50;;;;;;5033252;28;20473;-73
2021/07/01 10:05:45;;;;;;;15.18;8.77;;;18.10;60.60;;;;;;5031374;28;20033;-74
2021/07/01 10:08:10;;;;;;;15.68;9.00;;;18.60;59.40;;;;;;5029462;28;20033;-74
2021/07/01 10:10:52;;;;;;;19.55;9.05;;;19.10;57.90;;;;;;5031257;28;20037;-73
2021/07/01 10:13:20;;;;;;;13.73;8.20;;;18.90;58.80;;;;;;5025618;28;20033;-74
2021/07/01 10:15:49;;;;;;;14.35;7.25;;;18.60;59.40;;;;;;5028758;28;20033;-73
2021/07/01 10:18:20;;;;;;;14.43;8.02;;;18.30;58.60;;;;;;5011579;28;20108;-72
2021/07/01 10:20:51;;;;;;;17.00;7.68;;;17.90;59.90;;;;;;5028714;28;20049;-73
2021/07/01 10:23:22;;;;;;;15.10;7.38;;;18.10;60.00;;;;;;5015691;28;20087;-74
2021/07/01 10:25:50;;;;;;;15.02;8.57;;;18.30;60.40;;;;;;5028403;28;20477;-73
2021/07/01 10:28:18;;;;;;;15.55;8.48;;;18.40;58.60;;;;;;5024583;28;20116;-73
2021/07/01 10:31:07;;;;;;;11.20;6.95;;;18.50;59.80;;;;;;5030496;28;20076;-74
2021/07/01 10:33:35;;;;;;;15.10;8.80;;;18.60;58.10;;;;;;5018126;28;20112;-73
2021/07/01 10:36:03;;;;;;;14.07;8.52;;;18.50;57.60;;;;;;5023084;28;20045;-74
2021/07/01 10:38:49;;;;;;;14.27;8.57;;;18.60;58.00;;;;;;5030161;28;20032;-73
2021/07/01 10:41:36;;;;;;;13.38;8.57;;;18.50;57.90;;;;;;5028152;28;20044;-72
2021/07/01 10:44:04;;;;;;;15.00;8.75;;;18.40;58.60;;;;;;5013174;28;20060;-73
2021/07/01 10:46:56;;;;;;;14.27;8.45;;;18.40;59.40;;;;;;5028051;28;20053;-73
2021/07/01 10:49:35;;;;;;;17.75;7.93;;;18.60;58.80;;;;;;5016488;28;20041;-74
2021/07/01 10:52:03;;;;;;;17.33;9.30;;;18.80;58.60;;;;;;5028926;28;20037;-73
2021/07/01 10:54:30;;;;;;;14.50;8.55;;;19.00;58.70;;;;;;5029611;28;20379;-73
2021/07/01 10:57:04;;;;;;;17.17;10.23;;;18.80;58.30;;;;;;5002990;28;20058;-73
2021/07/01 10:59:50;;;;;;;14.85;7.97;;;19.00;57.70;;;;;;5004473;28;20034;-73
2021/07/01 11:02:24;;;;;;;15.25;8.68;;;19.20;58.90;;;;;;5011852;28;20111;-72
2021/07/01 11:04:51;;;;;;;18.67;9.68;;;19.50;57.80;;;;;;5038774;28;20033;-72
2021/07/01 11:07:19;;;;;;;15.32;9.15;;;19.40;55.80;;;;;;5041668;28;20029;-73
2021/07/01 11:09:47;;;;;;;15.85;8.52;;;19.00;56.70;;;;;;5032408;28;20025;-77
2021/07/01 11:12:13;;;;;;;16.77;9.20;;;19.00;59.00;;;;;;5025574;28;20041;-73
2021/07/01 11:14:41;;;;;;;13.68;7.72;;;19.50;57.30;;;;;;5023268;28;20057;-73
2021/07/01 11:17:07;;;;;;;14.50;7.72;;;19.70;55.50;;;;;;5013060;28;20149;-73
2021/07/01 11:19:40;;;;;;;12.45;8.30;;;19.60;56.50;;;;;;5039156;28;20046;-73
2021/07/01 11:22:06;;;;;;;21.02;9.63;;;19.20;56.70;;;;;;5021708;28;20040;-73
2021/07/01 11:24:31;;;;;;;13.35;8.68;;;19.00;58.70;;;;;;5039708;28;20030;-72
2021/07/01 11:27:02;;;;;;;17.25;10.10;;;18.90;57.80;;;;;;5023386;28;20042;-74
2021/07/01 11:29:42;;;;;;;17.80;9.45;;;18.90;58.00;;;;;;5032774;28;20083;-73
2021/07/01 11:32:24;;;;;;;13.77;9.18;;;18.90;57.80;;;;;;5026737;28;20037;-72
2021/07/01 11:34:51;;;;;;;18.48;10.15;;;18.80;58.80;;;;;;5019596;28;20025;-72
2021/07/01 11:37:33;;;;;;;16.35;10.02;;;19.00;57.00;;;;;;5030817;28;20060;-72
2021/07/01 11:40:21;;;;;;;14.20;8.90;;;19.00;57.40;;;;;;5017123;28;20112;-72
2021/07/01 11:42:50;;;;;;;13.50;9.73;;;19.10;57.40;;;;;;5008606;28;20026;-75
2021/07/01 11:45:16;;;;;;;14.80;9.32;;;19.60;56.60;;;;;;5007970;28;20077;-72
2021/07/01 11:47:43;;;;;;;14.80;9.05;;;20.00;56.00;;;;;;5010162;28;20034;-71
2021/07/01 11:50:09;;;;;;;16.02;11.05;;;20.50;55.20;;;;;;5002422;28;20533;-71
2021/07/01 11:52:36;;;;;;;18.45;10.55;;;20.60;54.60;;;;;;5002063;28;20172;-73
2021/07/01 11:55:03;;;;;;;15.90;9.60;;;20.30;53.70;;;;;;4993977;28;20026;-72
2021/07/01 11:57:30;;;;;;;15.82;9.35;;;20.10;55.70;;;;;;5004830;28;20025;-72
2021/07/01 11:59:57;;;;;;;19.50;9.10;;;19.60;56.30;;;;;;5030465;28;20075;-72
2021/07/01 12:02:23;;;;;;;17.70;9.80;;;19.30;55.80;;;;;;5029357;28;20033;-72
2021/07/01 12:04:49;;;;;;;22.42;9.40;;;19.30;57.40;;;;;;5028035;28;20025;-72
2021/07/01 12:07:26;;;;;;;16.63;10.05;;;19.50;55.90;;;;;;5029334;28;20041;-71
2021/07/01 12:09:54;;;;;;;14.63;9.10;;;19.30;55.10;;;;;;5032343;28;20029;-71
2021/07/01 12:12:22;;;;;;;17.00;9.77;;;20.00;54.40;;;;;;5032913;28;20030;-72
2021/07/01 12:15:01;;;;;;;14.23;9.07;;;20.10;55.60;;;;;;5033219;28;20034;-71
2021/07/01 12:17:51;;;;;;;16.42;8.85;;;20.00;55.30;;;;;;5033044;28;20034;-71
2021/07/01 12:20:33;;;;;;;16.67;9.15;;;20.00;54.40;;;;;;5028276;28;20485;-71
2021/07/01 12:23:01;;;;;;;18.20;8.05;;;19.60;55.00;;;;;;5021339;28;20477;-71
2021/07/01 12:25:27;;;;;;;17.10;7.63;;;19.60;55.90;;;;;;5016545;28;20045;-71
2021/07/01 12:28:08;;;;;;;14.10;6.65;;;20.10;54.10;;;;;;5028763;28;20083;-72
2021/07/01 12:31:03;;;;;;;13.57;6.82;;;20.40;54.30;;;;;;5032642;28;20037;-75
2021/07/01 12:33:28;;;;;;;14.20;6.73;;;20.80;54.50;;;;;;5019569;28;20040;-72
2021/07/01 12:36:10;;;;;;;13.07;7.60;;;20.10;50.50;;;;;;5033426;28;20033;-71
2021/07/01 12:38:37;;;;;;;14.00;6.22;;;20.10;52.30;;;;;;5026012;28;20029;-72
2021/07/01 12:41:08;;;;;;;12.38;6.88;;;20.50;51.70;;;;;;5033287;28;20059;-72